createdAt,value
2023-04-14T00:00:26.682Z,94793.34
2023-04-14T00:02:55.641Z,94789.63
2023-04-14T00:05:25.871Z,94795.22
2023-04-14T00:07:54.240Z,94768.19
2023-04-14T00:10:22.527Z,94793.34
2023-04-14T00:12:50.933Z,94794.16
2023-04-14T00:15:19.564Z,94789.13
2023-04-14T00:17:48.028Z,94764.22
2023-04-14T00:20:16.503Z,94798.78
2023-04-14T00:22:46.665Z,94801.47
2023-04-14T00:25:14.954Z,94810.81
2023-04-14T00:27:43.332Z,94805.47
2023-04-14T00:30:12.247Z,94804.44
2023-04-14T00:32:40.659Z,94806.81
2023-04-14T00:35:09.580Z,94812.66
2023-04-14T00:37:37.902Z,94810.25
2023-04-14T00:40:11.201Z,94817.97
2023-04-14T00:42:44.357Z,94800.00
2023-04-14T00:45:13.159Z,94815.59
2023-04-14T00:47:43.058Z,94820.13
2023-04-14T00:50:12.313Z,94826.50
2023-04-14T00:52:41.005Z,94820.00
2023-04-14T00:55:12.020Z,94827.72
2023-04-14T00:57:41.178Z,94837.66
2023-04-14T01:00:11.404Z,94832.03
2023-04-14T01:02:40.051Z,94825.94
2023-04-14T01:05:08.873Z,94823.25
2023-04-14T01:07:38.793Z,94831.00
2023-04-14T01:10:08.401Z,94828.06
2023-04-14T01:12:58.221Z,94828.88
2023-04-14T01:15:35.703Z,94829.66
2023-04-14T01:18:11.536Z,94832.31
2023-04-14T01:20:43.260Z,94829.13
2023-04-14T01:23:17.465Z,94789.69
2023-04-14T01:26:20.898Z,94814.34
2023-04-14T01:29:36.656Z,94824.19
2023-04-14T01:32:10.296Z,94822.56
2023-04-14T01:34:40.601Z,94817.97
2023-04-14T01:37:11.968Z,94823.06
2023-04-14T01:39:44.122Z,94820.47
2023-04-14T01:42:17.206Z,94835.47
2023-04-14T01:44:49.216Z,94833.34
2023-04-14T01:47:21.775Z,94829.38
2023-04-14T01:49:53.894Z,94828.06
2023-04-14T01:52:24.915Z,94837.94
2023-04-14T01:54:56.786Z,94804.19
2023-04-14T01:57:27.863Z,94822.69
2023-04-14T01:59:58.171Z,94834.22
2023-04-14T02:02:29.114Z,94835.31
2023-04-14T02:04:58.445Z,94836.66
2023-04-14T02:07:28.011Z,94840.09
2023-04-14T02:09:58.126Z,94840.44
2023-04-14T02:12:29.361Z,94770.50
2023-04-14T02:15:01.678Z,94847.97
2023-04-14T02:17:32.602Z,94843.16
2023-04-14T02:20:02.253Z,94851.47
2023-04-14T02:22:30.598Z,94778.59
2023-04-14T02:24:59.221Z,94850.13
2023-04-14T02:27:32.703Z,94817.47
2023-04-14T02:30:07.134Z,94853.38
2023-04-14T02:32:37.995Z,94841.91
2023-04-14T02:35:12.248Z,94846.97
2023-04-14T02:37:43.719Z,94824.47
2023-04-14T02:40:16.902Z,94838.94
2023-04-14T02:42:49.432Z,94807.91
2023-04-14T02:45:24.676Z,94831.47
2023-04-14T02:47:59.746Z,94832.28
2023-04-14T02:50:30.063Z,94814.91
2023-04-14T02:53:00.667Z,94837.41
2023-04-14T02:55:30.649Z,94829.38
2023-04-14T02:58:01.383Z,94836.91
2023-04-14T03:00:30.627Z,94832.06
2023-04-14T03:03:02.584Z,94830.47
2023-04-14T03:05:31.631Z,94831.25
2023-04-14T03:08:01.399Z,94826.09
2023-04-14T03:10:30.431Z,94816.03
2023-04-14T03:13:03.047Z,94832.06
2023-04-14T03:15:31.997Z,94833.13
2023-04-14T03:18:02.655Z,94830.75
2023-04-14T03:20:31.508Z,94836.13
2023-04-14T03:23:05.493Z,94801.06
2023-04-14T03:25:38.085Z,94845.28
2023-04-14T03:28:12.385Z,94823.66
2023-04-14T03:30:44.855Z,94826.59
2023-04-14T03:33:20.068Z,94841.06
2023-04-14T03:35:50.217Z,94848.53
2023-04-14T03:38:19.607Z,94731.25
2023-04-14T03:40:49.517Z,94830.66
2023-04-14T03:43:22.861Z,94838.16
2023-04-14T03:45:52.421Z,94837.66
2023-04-14T03:48:27.538Z,94837.09
2023-04-14T03:50:58.388Z,94806.56
2023-04-14T03:53:27.865Z,94773.88
2023-04-14T03:56:00.550Z,94832.28
2023-04-14T03:58:30.771Z,94842.47
2023-04-14T04:00:59.848Z,94842.19
2023-04-14T04:03:30.783Z,94835.53
2023-04-14T04:06:00.019Z,94835.03
2023-04-14T04:08:29.311Z,94832.59
2023-04-14T04:10:59.117Z,94820.81
2023-04-14T04:13:29.134Z,94825.91
2023-04-14T04:15:58.286Z,94817.09
2023-04-14T04:18:32.450Z,94815.78
2023-04-14T04:21:02.414Z,94817.09
2023-04-14T04:23:33.841Z,94812.56
2023-04-14T04:26:02.330Z,94815.22
2023-04-14T04:28:30.974Z,94810.13
2023-04-14T04:31:01.674Z,94819.22
2023-04-14T04:33:31.862Z,94810.91
2023-04-14T04:36:02.184Z,94826.44
2023-04-14T04:38:30.516Z,94833.34
2023-04-14T04:40:58.944Z,94834.69
2023-04-14T04:43:27.226Z,94823.38
2023-04-14T04:46:13.619Z,94846.69
2023-04-14T04:48:43.453Z,94850.69
2023-04-14T04:51:11.732Z,94852.03
2023-04-14T04:53:40.269Z,94852.59
2023-04-14T04:56:09.294Z,94850.19
2023-04-14T04:58:37.657Z,94844.38
2023-04-14T05:01:09.809Z,94839.78
2023-04-14T05:03:38.882Z,94845.13
2023-04-14T05:06:09.046Z,94841.94
2023-04-14T05:08:37.341Z,94843.50
2023-04-14T05:11:06.599Z,94839.78
2023-04-14T05:13:34.889Z,94853.16
2023-04-14T05:16:07.219Z,94844.63
2023-04-14T05:18:36.506Z,94839.28
2023-04-14T05:21:05.332Z,94837.13
2023-04-14T05:23:36.795Z,94834.75
2023-04-14T05:26:27.696Z,94835.53
2023-04-14T05:28:54.891Z,94846.50
2023-04-14T05:31:23.759Z,94836.38
2023-04-14T05:33:52.037Z,94835.84
2023-04-14T05:36:20.826Z,94839.84
2023-04-14T05:38:50.569Z,94825.41
2023-04-14T05:41:18.879Z,94834.53
2023-04-14T05:43:47.235Z,94828.66
2023-04-14T05:46:15.865Z,94828.38
2023-04-14T05:48:44.778Z,94830.00
2023-04-14T05:51:13.300Z,94806.13
2023-04-14T05:53:41.647Z,94832.66
2023-04-14T05:56:12.104Z,94839.06
2023-04-14T05:58:40.432Z,94839.34
2023-04-14T06:01:08.970Z,94807.22
2023-04-14T06:03:40.199Z,94839.94
2023-04-14T06:06:09.341Z,94815.28
2023-04-14T06:08:37.774Z,94841.03
2023-04-14T06:11:06.857Z,94834.34
2023-04-14T06:13:36.849Z,94842.91
2023-04-14T06:16:05.438Z,94838.88
2023-04-14T06:18:34.007Z,94836.75
2023-04-14T06:21:03.949Z,94829.75
2023-04-14T06:23:32.801Z,94828.72
2023-04-14T06:26:01.628Z,94840.50
2023-04-14T06:28:30.795Z,94817.75
2023-04-14T06:31:01.506Z,94844.28
2023-04-14T06:33:29.846Z,94851.78
2023-04-14T06:35:58.257Z,94717.41
2023-04-14T06:38:27.277Z,94842.19
2023-04-14T06:40:55.615Z,94814.31
2023-04-14T06:43:23.893Z,94845.41
2023-04-14T06:45:52.322Z,94847.53
2023-04-14T06:48:22.074Z,94839.78
2023-04-14T06:50:59.429Z,94847.00
2023-04-14T06:53:27.769Z,94840.84
2023-04-14T06:56:00.719Z,94848.09
2023-04-14T06:58:29.884Z,94840.88
2023-04-14T07:00:59.052Z,94832.31
2023-04-14T07:03:30.658Z,94814.66
2023-04-14T07:06:04.661Z,94818.94
2023-04-14T07:08:35.164Z,94813.03
2023-04-14T07:11:04.217Z,94819.22
2023-04-14T07:13:33.272Z,94775.59
2023-04-14T07:16:02.389Z,94818.16
2023-04-14T07:18:32.997Z,94816.53
2023-04-14T07:21:02.687Z,94787.63
2023-04-14T07:23:31.354Z,94796.19
2023-04-14T07:26:01.516Z,94827.50
2023-04-14T07:28:30.040Z,94829.38
2023-04-14T07:30:58.366Z,94826.16
2023-04-14T07:33:30.579Z,94811.97
2023-04-14T07:36:03.843Z,94824.56
2023-04-14T07:38:33.341Z,94815.19
2023-04-14T07:41:04.611Z,94830.72
2023-04-14T07:43:35.879Z,94835.78
2023-04-14T07:46:05.787Z,94844.38
2023-04-14T07:48:34.933Z,94844.63
2023-04-14T07:51:05.349Z,94846.50
2023-04-14T07:53:34.154Z,94852.13
2023-04-14T07:56:02.480Z,94841.63
2023-04-14T07:58:30.835Z,94852.88
2023-04-14T08:00:59.104Z,94843.53
2023-04-14T08:03:27.554Z,94807.13
2023-04-14T08:05:56.470Z,94837.56
2023-04-14T08:08:26.592Z,94790.47
2023-04-14T08:10:54.923Z,94830.38
2023-04-14T08:13:23.317Z,94814.56
2023-04-14T08:15:51.781Z,94840.81
2023-04-14T08:18:20.321Z,94822.63
2023-04-14T08:20:48.852Z,94797.72
2023-04-14T08:23:17.447Z,94835.66
2023-04-14T08:25:47.475Z,94833.81
2023-04-14T08:28:16.386Z,94788.66
2023-04-14T08:30:44.709Z,94835.13
2023-04-14T08:33:13.180Z,94831.34
2023-04-14T08:35:43.144Z,94835.16
2023-04-14T08:38:12.395Z,94812.72
2023-04-14T08:40:42.294Z,94835.66
2023-04-14T08:43:14.770Z,94834.00
2023-04-14T08:45:44.907Z,94836.44
2023-04-14T08:48:16.960Z,94840.16
2023-04-14T08:50:56.354Z,94817.94
2023-04-14T08:53:27.429Z,94836.38
2023-04-14T08:55:58.541Z,94831.78
2023-04-14T08:58:28.623Z,94800.72
2023-04-14T09:00:57.550Z,94818.31
2023-04-14T09:03:26.755Z,94825.13
2023-04-14T09:05:55.639Z,94832.41
2023-04-14T09:08:24.604Z,94821.94
2023-04-14T09:10:53.100Z,94804.84
2023-04-14T09:13:23.504Z,94830.56
2023-04-14T09:15:53.257Z,94828.41
2023-04-14T09:18:22.300Z,94827.06
2023-04-14T09:21:29.592Z,94822.44
2023-04-14T09:23:41.928Z,94822.44
2023-04-14T09:26:11.659Z,94789.03
2023-04-14T09:28:39.970Z,94824.00
2023-04-14T09:31:11.275Z,94827.75
2023-04-14T09:33:40.796Z,94802.34
2023-04-14T09:36:20.015Z,94826.59
2023-04-14T09:38:50.914Z,94837.09
2023-04-14T09:41:20.323Z,94844.69
2023-04-14T09:43:48.755Z,94805.38
2023-04-14T09:46:18.512Z,94849.19
2023-04-14T09:48:54.193Z,94831.34
2023-04-14T09:51:29.651Z,94849.28
2023-04-14T09:54:05.341Z,94751.44
2023-04-14T09:56:34.177Z,94828.41
2023-04-14T09:59:04.322Z,94837.78
2023-04-14T10:01:35.304Z,94843.69
2023-04-14T10:04:04.230Z,94835.66
2023-04-14T10:06:32.666Z,94841.28
2023-04-14T10:09:01.645Z,94844.47
2023-04-14T10:11:32.435Z,94799.31
2023-04-14T10:14:03.331Z,94848.78
2023-04-14T10:16:31.984Z,94854.16
2023-04-14T10:19:03.040Z,94859.66
2023-04-14T10:21:32.090Z,94865.13
2023-04-14T10:24:00.992Z,94864.84
2023-04-14T10:26:30.160Z,94869.44
2023-04-14T10:28:59.196Z,94845.34
2023-04-14T10:31:32.827Z,94837.56
2023-04-14T10:34:08.917Z,94874.22
2023-04-14T10:36:37.654Z,94875.31
2023-04-14T10:39:07.515Z,94864.88
2023-04-14T10:41:48.236Z,94867.28
2023-04-14T10:44:27.551Z,94804.72
2023-04-14T10:46:57.048Z,94858.72
2023-04-14T10:49:32.967Z,94873.16
2023-04-14T10:52:02.284Z,94869.66
2023-04-14T10:54:49.178Z,94868.56
2023-04-14T10:57:18.724Z,94860.50
2023-04-14T10:59:48.656Z,94867.75
2023-04-14T11:02:28.543Z,94864.53
2023-04-14T11:05:04.357Z,94838.00
2023-04-14T11:07:38.245Z,94861.53
2023-04-14T11:10:25.023Z,94844.41
2023-04-14T11:12:57.786Z,94818.84
2023-04-14T11:15:26.212Z,94841.34
2023-04-14T11:17:55.244Z,94834.84
2023-04-14T11:20:25.625Z,94825.38
2023-04-14T11:22:54.918Z,94811.59
2023-04-14T11:25:24.834Z,94811.00
2023-04-14T11:27:53.556Z,94747.31
2023-04-14T11:30:22.747Z,94798.38
2023-04-14T11:32:52.402Z,94778.78
2023-04-14T11:35:21.618Z,94799.63
2023-04-14T11:37:55.291Z,94794.13
2023-04-14T11:40:23.693Z,94794.31
2023-04-14T11:42:54.837Z,94789.13
2023-04-14T11:45:23.496Z,94799.19
2023-04-14T11:47:59.979Z,94796.28
2023-04-14T11:50:29.372Z,94800.66
2023-04-14T11:52:59.994Z,94791.19
2023-04-14T11:55:29.389Z,94787.34
2023-04-14T11:57:58.440Z,94790.03
2023-04-14T12:00:28.191Z,94792.78
2023-04-14T12:02:57.940Z,94748.28
2023-04-14T12:05:31.363Z,94761.84
2023-04-14T12:08:02.363Z,94763.56
2023-04-14T12:10:31.713Z,94764.09
2023-04-14T12:13:04.475Z,94756.22
2023-04-14T12:15:36.882Z,94754.69
2023-04-14T12:18:06.910Z,94761.84
2023-04-14T12:20:44.153Z,94757.97
2023-04-14T12:23:14.341Z,94754.88
2023-04-14T12:25:42.845Z,94751.34
2023-04-14T12:28:12.749Z,94547.53
2023-04-14T12:30:52.768Z,94753.00
2023-04-14T12:33:24.109Z,94739.50
2023-04-14T12:35:52.592Z,94746.53
2023-04-14T12:38:28.461Z,94720.06
2023-04-14T12:40:56.977Z,94739.09
2023-04-14T12:43:29.621Z,94736.59
2023-04-14T12:45:58.783Z,94737.75
2023-04-14T12:48:43.818Z,94725.59
2023-04-14T12:51:14.132Z,94712.25
2023-04-14T12:53:44.907Z,94717.25
2023-04-14T12:56:14.726Z,94714.72
2023-04-14T12:58:44.139Z,94711.59
2023-04-14T13:01:13.235Z,94718.50
2023-04-14T13:03:43.227Z,94717.53
2023-04-14T13:06:13.488Z,94721.00
2023-04-14T13:08:46.303Z,94711.00
2023-04-14T13:11:14.972Z,94704.72
2023-04-14T13:13:44.492Z,94699.28
2023-04-14T13:16:16.753Z,94713.44
2023-04-14T13:18:48.090Z,94699.94
2023-04-14T13:21:16.758Z,94713.09
2023-04-14T13:23:46.668Z,94726.50
2023-04-14T13:26:14.984Z,94734.97
2023-04-14T13:28:43.326Z,94736.03
2023-04-14T13:31:13.616Z,94736.94
2023-04-14T13:33:41.938Z,94749.34
2023-04-14T13:36:10.786Z,94745.41
2023-04-14T13:38:39.073Z,94747.03
2023-04-14T13:41:08.825Z,94721.50
2023-04-14T13:43:37.695Z,94748.72
2023-04-14T13:46:06.492Z,94741.44
2023-04-14T13:48:35.602Z,94747.81
2023-04-14T13:51:04.160Z,94748.66
2023-04-14T13:53:32.503Z,94748.97
2023-04-14T13:56:01.008Z,94746.59
2023-04-14T13:58:30.948Z,94720.25
2023-04-14T14:00:59.429Z,94744.59
2023-04-14T14:03:29.824Z,94745.97
2023-04-14T14:05:58.966Z,94745.16
2023-04-14T14:08:27.306Z,94742.69
2023-04-14T14:10:55.729Z,94745.66
2023-04-14T14:13:24.002Z,94740.81
2023-04-14T14:15:54.057Z,94734.88
2023-04-14T14:18:22.736Z,94733.78
2023-04-14T14:20:51.177Z,94732.91
2023-04-14T14:23:19.470Z,94730.44
2023-04-14T14:25:47.978Z,94730.38
2023-04-14T14:28:16.290Z,94713.75
2023-04-14T14:30:44.659Z,94711.03
2023-04-14T14:33:14.809Z,94720.53
2023-04-14T14:35:43.419Z,94724.22
2023-04-14T14:38:11.745Z,94734.09
2023-04-14T14:40:40.537Z,94719.81
2023-04-14T14:43:09.009Z,94720.31
2023-04-14T14:45:37.445Z,94715.41
2023-04-14T14:48:06.416Z,94702.03
2023-04-14T14:50:36.704Z,94711.16
2023-04-14T14:53:04.949Z,94707.91
2023-04-14T14:55:34.539Z,94707.38
2023-04-14T14:58:04.078Z,94709.78
2023-04-14T15:00:32.371Z,94701.66
2023-04-14T15:03:00.829Z,94708.84
2023-04-14T15:05:29.224Z,94706.09
2023-04-14T15:07:59.147Z,94700.63
2023-04-14T15:10:27.509Z,94648.28
2023-04-14T15:12:55.873Z,94706.34
2023-04-14T15:15:24.190Z,94705.19
2023-04-14T15:17:52.681Z,94716.69
2023-04-14T15:20:21.130Z,94712.19
2023-04-14T15:22:49.454Z,94710.50
2023-04-14T15:25:19.272Z,94659.34
2023-04-14T15:27:47.545Z,94713.75
2023-04-14T15:30:17.254Z,94708.97
2023-04-14T15:32:45.810Z,94708.69
2023-04-14T15:35:14.245Z,94708.88
2023-04-14T15:37:42.601Z,94717.75
2023-04-14T15:40:12.082Z,94683.63
2023-04-14T15:42:42.216Z,94713.66
2023-04-14T15:45:11.663Z,94708.63
2023-04-14T15:47:40.238Z,94692.84
2023-04-14T15:50:12.532Z,94707.00
2023-04-14T15:52:41.386Z,94711.81
2023-04-14T15:55:11.719Z,94710.81
2023-04-14T15:57:41.461Z,94713.44
2023-04-14T16:00:11.214Z,94665.38
2023-04-14T16:02:40.167Z,94708.88
2023-04-14T16:05:09.420Z,94704.84
2023-04-14T16:07:38.058Z,94707.09
2023-04-14T16:10:08.603Z,94706.28
2023-04-14T16:12:37.047Z,94705.00
2023-04-14T16:15:10.155Z,94671.13
2023-04-14T16:17:38.716Z,94705.31
2023-04-14T16:20:08.378Z,94705.03
2023-04-14T16:22:37.144Z,94702.59
2023-04-14T16:25:05.945Z,94702.59
2023-04-14T16:27:34.915Z,94666.28
2023-04-14T16:30:04.256Z,94696.59
2023-04-14T16:32:34.040Z,94707.22
2023-04-14T16:35:02.624Z,94702.41
2023-04-14T16:37:31.007Z,94714.78
2023-04-14T16:39:59.444Z,94706.19
2023-04-14T16:42:28.638Z,94672.59
2023-04-14T16:44:57.117Z,94713.63
2023-04-14T16:47:25.617Z,94690.19
2023-04-14T16:49:56.116Z,94427.22
2023-04-14T16:52:26.357Z,94725.41
2023-04-14T16:54:54.793Z,94684.25
2023-04-14T16:57:23.274Z,94721.97
2023-04-14T16:59:51.603Z,94723.91
2023-04-14T17:02:20.129Z,94744.50
2023-04-14T17:04:48.864Z,94739.56
2023-04-14T17:07:18.693Z,94738.41
2023-04-14T17:09:47.277Z,94735.72
2023-04-14T17:12:15.548Z,94728.53
2023-04-14T17:14:45.184Z,94740.47
2023-04-14T17:17:13.475Z,94729.22
2023-04-14T17:19:41.853Z,94739.09
2023-04-14T17:22:10.322Z,94741.25
2023-04-14T17:24:40.185Z,94754.66
2023-04-14T17:27:08.485Z,94737.50
2023-04-14T17:29:37.162Z,94739.66
2023-04-14T17:32:06.159Z,94715.03
2023-04-14T17:34:35.019Z,94750.31
2023-04-14T17:37:04.955Z,94711.59
2023-04-14T17:39:33.605Z,94715.59
2023-04-14T17:42:03.587Z,94743.91
2023-04-14T17:44:33.897Z,94750.38
2023-04-14T17:47:03.622Z,94756.03
2023-04-14T17:49:33.714Z,94757.91
2023-04-14T17:52:02.278Z,94762.19
2023-04-14T17:54:31.325Z,94761.66
2023-04-14T17:56:59.720Z,94755.22
2023-04-14T17:59:29.460Z,94761.38
2023-04-14T18:01:57.765Z,94761.63
2023-04-14T18:04:26.451Z,94753.84
2023-04-14T18:06:56.761Z,94758.19
2023-04-14T18:09:25.027Z,94754.16
2023-04-14T18:11:53.691Z,94752.03
2023-04-14T18:14:22.130Z,94753.94
2023-04-14T18:16:52.330Z,94746.69
2023-04-14T18:19:20.925Z,94665.00
2023-04-14T18:21:49.375Z,94739.78
2023-04-14T18:26:48.815Z,94751.56
2023-04-14T18:29:17.559Z,94745.66
2023-04-14T18:31:46.049Z,94719.22
2023-04-14T18:34:15.793Z,94711.50
2023-04-14T18:36:44.510Z,94681.03
2023-04-14T18:39:12.855Z,94741.94
2023-04-14T18:41:41.561Z,94743.28
2023-04-14T18:44:09.895Z,94744.09
2023-04-14T18:46:39.401Z,94744.63
2023-04-14T18:49:07.726Z,94743.03
2023-04-14T18:51:37.808Z,94751.06
2023-04-14T18:54:06.162Z,94752.66
2023-04-14T18:56:35.065Z,94746.78
2023-04-14T18:59:03.605Z,94751.34
2023-04-14T19:01:33.535Z,94754.06
2023-04-14T19:04:03.218Z,94754.84
2023-04-14T19:06:31.959Z,94756.22
2023-04-14T19:09:04.157Z,94760.25
2023-04-14T19:11:36.811Z,94754.38
2023-04-14T19:14:05.592Z,94755.72
2023-04-14T19:16:34.858Z,94756.00
2023-04-14T19:19:03.622Z,94754.66
2023-04-14T19:21:32.587Z,94579.63
2023-04-14T19:24:02.678Z,94760.81
2023-04-14T19:26:31.259Z,94753.06
2023-04-14T19:29:00.296Z,94762.44
2023-04-14T19:31:29.811Z,94765.66
2023-04-14T19:33:58.748Z,94760.00
2023-04-14T19:36:27.262Z,94746.66
2023-04-14T19:38:56.156Z,94695.59
2023-04-14T19:41:26.154Z,94756.53
2023-04-14T19:43:54.407Z,94745.31
2023-04-14T19:46:23.145Z,94750.69
2023-04-14T19:48:51.894Z,94758.72
2023-04-14T19:51:20.160Z,94754.97
2023-04-14T19:53:49.352Z,94744.81
2023-04-14T19:56:17.700Z,94762.47
2023-04-14T19:58:47.456Z,94764.06
2023-04-14T20:01:16.400Z,94758.69
2023-04-14T20:04:05.327Z,94760.06
2023-04-14T20:06:34.433Z,94759.25
2023-04-14T20:09:04.539Z,94757.13
2023-04-14T20:11:33.514Z,94755.50
2023-04-14T20:14:03.847Z,94750.69
2023-04-14T20:16:32.759Z,94745.06
2023-04-14T20:19:01.939Z,94746.41
2023-04-14T20:21:30.453Z,94749.09
2023-04-14T20:23:59.969Z,94742.38
2023-04-14T20:26:28.765Z,94740.78
2023-04-14T20:28:57.394Z,94735.97
2023-04-14T20:31:27.366Z,94735.19
2023-04-14T20:33:56.301Z,94740.28
2023-04-14T20:36:24.825Z,94707.41
2023-04-14T20:38:53.187Z,94738.94
2023-04-14T20:41:21.765Z,94712.22
2023-04-14T20:43:50.075Z,94743.50
2023-04-14T20:46:20.528Z,94725.59
2023-04-14T20:48:50.565Z,94703.63
2023-04-14T20:51:19.246Z,94678.53
2023-04-14T20:53:47.707Z,94493.13
2023-04-14T20:56:16.116Z,94695.09
2023-04-14T20:58:44.513Z,94722.88
2023-04-14T21:01:13.213Z,94724.50
2023-04-14T21:03:41.738Z,94726.38
2023-04-14T21:06:11.934Z,94700.72
2023-04-14T21:08:40.771Z,94704.72
2023-04-14T21:11:16.930Z,94728.78
2023-04-14T21:15:44.322Z,94718.88
2023-04-14T21:16:36.407Z,94690.81
2023-04-14T21:19:05.786Z,94718.34
2023-04-14T21:21:36.254Z,94722.88
2023-04-14T21:24:04.800Z,94726.13
2023-04-14T21:26:33.152Z,94717.00
2023-04-14T21:29:02.084Z,94718.09
2023-04-14T21:31:30.706Z,94717.00
2023-04-14T21:33:59.185Z,94701.53
2023-04-14T21:36:27.687Z,94720.78
2023-04-14T21:38:58.252Z,94721.31
2023-04-14T21:41:26.633Z,94692.97
2023-04-14T21:43:55.053Z,94718.09
2023-04-14T21:46:23.525Z,94712.75
2023-04-14T21:48:51.921Z,94715.13
2023-04-14T21:51:20.403Z,94712.47
2023-04-14T21:53:49.017Z,94710.06
2023-04-14T21:56:19.552Z,94603.19
2023-04-14T21:58:47.881Z,94709.00
2023-04-14T22:01:16.211Z,94707.38
2023-04-14T22:03:44.873Z,94711.16
2023-04-14T22:06:13.745Z,94708.44
2023-04-14T22:08:42.545Z,94703.38
2023-04-14T22:11:10.874Z,94698.81
2023-04-14T22:13:40.797Z,94695.09
2023-04-14T22:16:11.434Z,94707.41
2023-04-14T22:18:40.644Z,94650.47
2023-04-14T22:21:12.276Z,94693.47
2023-04-14T22:23:40.895Z,94695.09
2023-04-14T22:26:09.329Z,94705.78
2023-04-14T22:28:37.756Z,94699.63
2023-04-14T22:31:07.954Z,94699.38
2023-04-14T22:33:36.657Z,94695.38
2023-04-14T22:36:07.071Z,94697.50
2023-04-14T22:38:35.665Z,94546.81
2023-04-14T22:41:03.956Z,94691.59
2023-04-14T22:43:32.334Z,94691.88
2023-04-14T22:46:00.886Z,94692.41
2023-04-14T22:48:30.724Z,94698.56
2023-04-14T22:50:59.055Z,94686.53
2023-04-14T22:53:27.387Z,94691.34
2023-04-14T22:55:55.962Z,94700.72
2023-04-14T22:58:24.619Z,94699.91
2023-04-14T23:00:53.296Z,94672.66
2023-04-14T23:03:21.775Z,94692.69
2023-04-14T23:05:52.067Z,94692.44
2023-04-14T23:08:20.442Z,94693.25
2023-04-14T23:10:48.721Z,94691.09
2023-04-14T23:13:17.031Z,94694.00
2023-04-14T23:15:45.433Z,94694.81
2023-04-14T23:18:14.126Z,94680.13
2023-04-14T23:20:43.360Z,94691.09
2023-04-14T23:23:14.644Z,94690.03
2023-04-14T23:25:43.113Z,94688.13
2023-04-14T23:28:12.863Z,94688.66
2023-04-14T23:30:42.582Z,94684.41
2023-04-14T23:33:10.950Z,94683.34
2023-04-14T23:35:40.353Z,94679.59
2023-04-14T23:38:09.064Z,94659.53
2023-04-14T23:40:39.173Z,94676.66
2023-04-14T23:43:07.523Z,94675.28
2023-04-14T23:45:38.482Z,94673.69
2023-04-14T23:48:07.259Z,94667.03
2023-04-14T23:51:00.211Z,94659.81
2023-04-14T23:53:25.026Z,94664.09
2023-04-14T23:55:55.345Z,94659.81
2023-04-14T23:58:26.915Z,94651.28
